createdAt,value
2022-12-15T00:00:18.573Z,6.70
2022-12-15T00:03:04.185Z,7.13
2022-12-15T00:05:50.273Z,6.30
2022-12-15T00:08:36.445Z,7.75
2022-12-15T00:11:22.776Z,7.07
2022-12-15T00:14:08.376Z,6.25
2022-12-15T00:16:53.856Z,6.68
2022-12-15T00:19:39.222Z,6.05
2022-12-15T00:22:25.019Z,6.35
2022-12-15T00:25:10.376Z,5.85
2022-12-15T00:27:55.768Z,7.32
2022-12-15T00:30:41.226Z,6.45
2022-12-15T00:33:29.453Z,6.82
2022-12-15T00:36:17.696Z,7.10
2022-12-15T00:38:45.406Z,5.40
2022-12-15T00:41:17.091Z,5.97
2022-12-15T00:43:45.335Z,5.63
2022-12-15T00:46:31.422Z,5.43
2022-12-15T00:48:58.729Z,5.28
2022-12-15T00:51:44.790Z,5.22
2022-12-15T00:54:30.676Z,5.65
2022-12-15T00:57:16.127Z,5.65
2022-12-15T01:00:01.610Z,5.57
2022-12-15T01:02:47.334Z,4.63
2022-12-15T01:05:33.272Z,4.85
2022-12-15T01:08:19.287Z,4.63
2022-12-15T01:11:05.263Z,5.00
2022-12-15T01:13:51.132Z,5.03
2022-12-15T01:16:36.642Z,6.45
2022-12-15T01:19:22.409Z,4.75
2022-12-15T01:21:50.175Z,4.85
2022-12-15T01:24:17.282Z,5.10
2022-12-15T01:26:44.527Z,4.88
2022-12-15T01:29:11.677Z,5.07
2022-12-15T01:31:38.719Z,5.45
2022-12-15T01:34:05.815Z,6.00
2022-12-15T01:36:32.908Z,5.57
2022-12-15T01:39:00.729Z,5.72
2022-12-15T01:41:29.115Z,6.78
2022-12-15T01:44:14.321Z,6.00
2022-12-15T01:46:41.479Z,5.38
2022-12-15T01:49:16.735Z,5.57
2022-12-15T01:51:48.985Z,5.13
2022-12-15T01:54:21.338Z,5.18
2022-12-15T01:56:52.705Z,6.05
2022-12-15T01:59:25.109Z,5.03
2022-12-15T02:01:53.076Z,5.13
2022-12-15T02:04:22.830Z,5.55
2022-12-15T02:06:50.813Z,4.82
2022-12-15T02:09:19.144Z,5.10
2022-12-15T02:12:08.835Z,4.68
2022-12-15T02:14:44.976Z,4.95
2022-12-15T02:17:15.054Z,6.20
2022-12-15T02:19:57.381Z,5.20
2022-12-15T02:23:08.042Z,4.85
2022-12-15T02:25:40.519Z,4.85
2022-12-15T02:28:45.619Z,4.50
2022-12-15T02:31:42.417Z,5.20
2022-12-15T02:34:33.431Z,5.28
2022-12-15T02:37:15.862Z,4.25
2022-12-15T02:39:42.979Z,5.00
2022-12-15T02:42:11.336Z,4.95
2022-12-15T02:45:16.557Z,4.82
2022-12-15T02:47:46.612Z,4.80
2022-12-15T02:50:16.687Z,4.07
2022-12-15T02:53:02.598Z,4.15
2022-12-15T02:55:50.213Z,3.70
2022-12-15T02:58:28.486Z,3.55
2022-12-15T03:01:04.416Z,3.95
2022-12-15T03:03:34.604Z,4.13
2022-12-15T03:06:03.231Z,3.97
2022-12-15T03:08:30.203Z,3.40
2022-12-15T03:10:58.105Z,3.30
2022-12-15T03:13:25.641Z,3.47
2022-12-15T03:15:54.483Z,3.47
2022-12-15T03:18:21.756Z,3.00
2022-12-15T03:20:50.516Z,3.22
2022-12-15T03:23:17.687Z,2.60
2022-12-15T03:25:46.173Z,2.75
2022-12-15T03:28:17.408Z,3.15
2022-12-15T03:30:45.167Z,3.45
2022-12-15T03:33:17.620Z,2.85
2022-12-15T03:35:44.626Z,3.05
2022-12-15T03:38:11.591Z,2.55
2022-12-15T03:40:38.701Z,2.65
2022-12-15T03:43:05.691Z,2.28
2022-12-15T03:45:32.750Z,2.08
2022-12-15T03:47:59.888Z,2.05
2022-12-15T03:50:29.308Z,2.47
2022-12-15T03:53:01.064Z,2.40
2022-12-15T03:55:31.539Z,2.40
2022-12-15T03:57:59.369Z,2.33
2022-12-15T04:00:27.019Z,2.05
2022-12-15T04:02:54.424Z,1.80
2022-12-15T04:05:25.808Z,2.67
2022-12-15T04:07:54.731Z,3.22
2022-12-15T04:10:22.324Z,3.85
2022-12-15T04:12:49.687Z,3.72
2022-12-15T04:15:17.157Z,4.10
2022-12-15T04:17:44.562Z,3.80
2022-12-15T04:20:12.181Z,3.80
2022-12-15T04:22:40.335Z,4.38
2022-12-15T04:25:28.615Z,4.78
2022-12-15T04:28:14.673Z,7.10
2022-12-15T04:31:07.392Z,6.47
2022-12-15T04:33:54.178Z,8.20
2022-12-15T04:36:40.523Z,10.25
2022-12-15T04:39:25.961Z,11.48
2022-12-15T04:42:16.122Z,12.30
2022-12-15T04:45:02.212Z,12.40
2022-12-15T04:47:48.128Z,14.68
2022-12-15T04:50:33.552Z,14.88
2022-12-15T04:53:34.569Z,14.63
2022-12-15T04:56:20.939Z,14.82
2022-12-15T04:59:07.516Z,16.50
2022-12-15T05:01:54.063Z,14.98
2022-12-15T05:04:39.512Z,16.92
2022-12-15T05:07:24.970Z,15.88
2022-12-15T05:10:14.859Z,16.60
2022-12-15T05:13:01.836Z,16.40
2022-12-15T05:15:48.292Z,14.85
2022-12-15T05:18:33.755Z,13.75
2022-12-15T05:21:19.135Z,14.75
2022-12-15T05:24:04.437Z,15.98
2022-12-15T05:26:52.996Z,14.20
2022-12-15T05:29:39.930Z,15.10
2022-12-15T05:32:08.130Z,14.13
2022-12-15T05:34:36.367Z,15.00
2022-12-15T05:37:05.652Z,14.25
2022-12-15T05:39:33.070Z,13.73
2022-12-15T05:42:00.230Z,11.95
2022-12-15T05:44:28.513Z,12.13
2022-12-15T05:46:55.588Z,12.13
2022-12-15T05:49:23.393Z,13.00
2022-12-15T05:51:50.770Z,13.40
2022-12-15T05:54:20.182Z,12.80
2022-12-15T05:56:50.553Z,11.82
2022-12-15T05:59:19.305Z,12.88
2022-12-15T06:01:46.645Z,12.50
2022-12-15T06:04:13.918Z,11.85
2022-12-15T06:06:41.554Z,12.90
2022-12-15T06:09:08.683Z,11.98
2022-12-15T06:11:35.744Z,13.07
2022-12-15T06:14:02.872Z,11.82
2022-12-15T06:16:30.301Z,10.95
2022-12-15T06:19:00.550Z,10.25
2022-12-15T06:21:31.012Z,10.93
2022-12-15T06:23:58.241Z,10.68
2022-12-15T06:26:28.209Z,10.85
2022-12-15T06:28:57.579Z,11.07
2022-12-15T06:31:25.832Z,11.30
2022-12-15T06:33:59.256Z,10.00
2022-12-15T06:36:28.828Z,9.35
2022-12-15T06:38:59.472Z,9.93
2022-12-15T06:41:26.743Z,10.35
2022-12-15T06:43:57.877Z,9.52
2022-12-15T06:46:26.336Z,11.18
2022-12-15T06:48:53.633Z,11.00
2022-12-15T06:51:20.859Z,11.73
2022-12-15T06:53:54.135Z,12.07
2022-12-15T06:56:34.172Z,11.27
2022-12-15T06:59:06.266Z,10.45
2022-12-15T07:01:34.725Z,10.88
2022-12-15T07:04:05.358Z,11.32
2022-12-15T07:06:36.575Z,11.80
2022-12-15T07:09:05.395Z,12.48
2022-12-15T07:11:32.985Z,12.93
2022-12-15T07:13:59.940Z,11.38
2022-12-15T07:16:27.005Z,13.93
2022-12-15T07:18:54.005Z,13.40
2022-12-15T07:21:20.991Z,13.57
2022-12-15T07:23:56.817Z,13.02
2022-12-15T07:26:24.964Z,12.82
2022-12-15T07:28:53.751Z,11.07
2022-12-15T07:31:21.911Z,9.88
2022-12-15T07:33:49.256Z,9.70
2022-12-15T07:36:16.544Z,10.10
2022-12-15T07:38:49.991Z,10.43
2022-12-15T07:41:18.993Z,9.38
2022-12-15T07:43:48.166Z,10.07
2022-12-15T07:46:16.994Z,9.82
2022-12-15T07:48:44.292Z,10.77
2022-12-15T07:51:20.191Z,12.00
2022-12-15T07:53:49.818Z,15.45
2022-12-15T07:56:17.686Z,13.70
2022-12-15T07:58:45.051Z,13.07
2022-12-15T08:01:14.197Z,14.80
2022-12-15T08:03:41.818Z,15.10
2022-12-15T08:06:11.549Z,12.10
2022-12-15T08:08:38.885Z,11.35
2022-12-15T08:11:10.674Z,11.30
2022-12-15T08:14:02.109Z,12.80
2022-12-15T08:16:25.785Z,10.95
2022-12-15T08:18:53.071Z,11.15
2022-12-15T08:21:20.145Z,11.02
2022-12-15T08:23:47.813Z,10.98
2022-12-15T08:26:17.020Z,11.00
2022-12-15T08:28:44.983Z,9.55
2022-12-15T08:31:22.085Z,9.55
2022-12-15T08:33:49.922Z,9.05
2022-12-15T08:36:18.645Z,8.82
2022-12-15T08:38:46.648Z,7.60
2022-12-15T08:41:14.699Z,9.90
2022-12-15T08:43:48.228Z,10.45
2022-12-15T08:46:18.464Z,13.10
2022-12-15T08:48:45.909Z,14.55
2022-12-15T08:51:13.385Z,19.05
2022-12-15T08:53:42.271Z,18.02
2022-12-15T08:56:12.351Z,18.17
2022-12-15T08:58:40.268Z,18.20
2022-12-15T09:01:10.937Z,16.75
2022-12-15T09:03:38.403Z,17.48
2022-12-15T09:06:07.638Z,17.55
2022-12-15T09:08:35.554Z,18.23
2022-12-15T09:11:02.899Z,18.15
2022-12-15T09:13:30.450Z,17.25
2022-12-15T09:16:10.709Z,18.60
2022-12-15T09:18:38.306Z,19.10
2022-12-15T09:21:07.525Z,18.48
2022-12-15T09:23:36.615Z,20.17
2022-12-15T09:26:08.658Z,19.98
2022-12-15T09:28:37.133Z,23.25
2022-12-15T09:31:08.281Z,20.85
2022-12-15T09:33:36.049Z,20.85
2022-12-15T09:36:03.811Z,24.33
2022-12-15T09:38:31.453Z,27.42
2022-12-15T09:40:58.516Z,27.23
2022-12-15T09:43:37.945Z,30.67
2022-12-15T09:46:24.009Z,28.95
2022-12-15T09:48:52.976Z,27.77
2022-12-15T09:51:23.496Z,28.05
2022-12-15T09:53:55.845Z,27.58
2022-12-15T09:56:57.927Z,26.83
2022-12-15T09:59:46.620Z,26.98
2022-12-15T10:02:21.155Z,27.88
2022-12-15T10:05:09.657Z,29.50
2022-12-15T10:07:43.809Z,28.58
2022-12-15T10:10:39.911Z,29.05
2022-12-15T10:13:23.447Z,30.65
2022-12-15T10:15:58.323Z,31.27
2022-12-15T10:18:30.020Z,32.08
2022-12-15T10:21:00.584Z,33.50
2022-12-15T10:23:27.603Z,31.40
2022-12-15T10:26:19.222Z,30.80
2022-12-15T10:29:02.957Z,38.25
2022-12-15T10:32:00.456Z,38.13
2022-12-15T10:34:34.054Z,30.50
2022-12-15T10:37:01.576Z,30.95
2022-12-15T10:39:43.360Z,32.20
2022-12-15T10:42:23.402Z,29.70
2022-12-15T10:44:53.125Z,29.10
2022-12-15T10:47:34.006Z,27.98
2022-12-15T10:50:25.148Z,21.60
2022-12-15T10:52:52.500Z,23.67
2022-12-15T10:55:40.418Z,25.15
2022-12-15T10:58:22.356Z,22.88
2022-12-15T11:01:07.117Z,24.50
2022-12-15T11:03:39.753Z,25.08
2022-12-15T11:06:22.461Z,24.45
2022-12-15T11:08:53.092Z,25.77
2022-12-15T11:11:47.595Z,25.10
2022-12-15T11:14:23.504Z,23.60
2022-12-15T11:16:56.579Z,22.52
2022-12-15T11:19:48.090Z,22.95
2022-12-15T11:22:20.395Z,23.92
2022-12-15T11:24:56.894Z,23.95
2022-12-15T11:27:35.823Z,25.63
2022-12-15T11:30:22.227Z,24.33
2022-12-15T11:32:55.668Z,21.02
2022-12-15T11:35:28.909Z,23.20
2022-12-15T11:38:22.234Z,22.27
2022-12-15T11:40:51.786Z,23.30
2022-12-15T11:43:38.319Z,23.05
2022-12-15T11:46:11.318Z,22.92
2022-12-15T11:49:06.066Z,24.70
2022-12-15T11:51:49.392Z,23.70
2022-12-15T11:54:39.716Z,25.15
2022-12-15T11:57:21.831Z,20.70
2022-12-15T12:00:10.544Z,21.48
2022-12-15T12:02:47.482Z,19.27
2022-12-15T12:05:56.287Z,17.42
2022-12-15T12:08:44.750Z,20.75
2022-12-15T12:11:16.388Z,25.50
2022-12-15T12:14:05.338Z,24.73
2022-12-15T12:16:41.145Z,25.58
2022-12-15T12:19:29.029Z,28.40
2022-12-15T12:22:24.165Z,26.67
2022-12-15T12:25:06.650Z,25.30
2022-12-15T12:27:50.421Z,26.30
2022-12-15T12:30:23.219Z,30.25
2022-12-15T12:33:04.043Z,26.70
2022-12-15T12:35:52.329Z,24.33
2022-12-15T12:38:25.764Z,24.85
2022-12-15T12:41:04.879Z,33.10
2022-12-15T12:43:36.638Z,26.90
2022-12-15T12:46:13.968Z,26.80
2022-12-15T12:48:53.322Z,24.60
2022-12-15T12:51:31.081Z,24.92
2022-12-15T12:53:59.504Z,24.92
2022-12-15T12:56:45.599Z,26.27
2022-12-15T12:59:37.670Z,26.83
2022-12-15T13:02:25.689Z,27.27
2022-12-15T13:05:06.514Z,26.83
2022-12-15T13:07:40.786Z,25.90
2022-12-15T13:10:19.364Z,29.83
2022-12-15T13:12:53.316Z,27.13
2022-12-15T13:15:35.987Z,26.88
2022-12-15T13:18:19.558Z,24.27
2022-12-15T13:20:48.945Z,25.17
2022-12-15T13:23:23.961Z,25.65
2022-12-15T13:25:56.969Z,25.98
2022-12-15T13:28:27.212Z,24.80
2022-12-15T13:31:19.363Z,26.90
2022-12-15T13:33:49.479Z,26.58
2022-12-15T13:36:38.620Z,26.52
2022-12-15T13:39:12.406Z,27.55
2022-12-15T13:42:23.730Z,31.48
2022-12-15T13:45:05.485Z,30.77
2022-12-15T13:47:33.188Z,29.27
2022-12-15T13:50:14.596Z,30.23
2022-12-15T13:56:17.715Z,74.03
2022-12-15T14:01:51.344Z,35.17
2022-12-15T14:04:19.332Z,32.08
2022-12-15T14:06:58.200Z,30.65
2022-12-15T14:09:41.779Z,30.52
2022-12-15T14:12:15.136Z,34.42
2022-12-15T14:14:49.811Z,30.70
2022-12-15T14:17:19.401Z,29.35
2022-12-15T14:19:51.031Z,31.85
2022-12-15T14:22:28.064Z,30.63
2022-12-15T14:25:24.550Z,34.22
2022-12-15T14:27:51.816Z,32.92
2022-12-15T14:30:32.715Z,27.90
2022-12-15T14:33:08.205Z,31.65
2022-12-15T14:35:42.635Z,32.33
2022-12-15T14:38:46.039Z,33.22
2022-12-15T14:41:40.150Z,31.85
2022-12-15T14:44:36.366Z,29.23
2022-12-15T14:47:16.182Z,25.63
2022-12-15T14:49:45.703Z,28.17
2022-12-15T14:52:42.896Z,21.33
2022-12-15T14:55:30.948Z,22.98
2022-12-15T14:57:58.547Z,22.50
2022-12-15T15:00:27.877Z,21.25
2022-12-15T15:06:01.474Z,20.33
2022-12-15T15:09:02.598Z,16.75
2022-12-15T15:11:31.438Z,16.25
2022-12-15T15:14:08.096Z,18.80
2022-12-15T15:16:35.285Z,19.35
2022-12-15T15:19:03.170Z,20.35
2022-12-15T15:21:34.229Z,21.52
2022-12-15T15:24:17.220Z,23.30
2022-12-15T15:26:44.311Z,23.17
2022-12-15T15:29:50.251Z,22.55
2022-12-15T15:32:22.384Z,19.80
2022-12-15T15:34:49.842Z,21.52
2022-12-15T15:37:22.964Z,22.70
2022-12-15T15:39:55.300Z,21.95
2022-12-15T15:42:25.435Z,18.75
2022-12-15T15:44:57.965Z,19.80
2022-12-15T15:47:25.895Z,17.67
2022-12-15T15:49:55.032Z,17.20
2022-12-15T15:52:22.888Z,17.33
2022-12-15T15:54:50.471Z,16.27
2022-12-15T15:57:19.011Z,16.42
2022-12-15T15:59:47.066Z,16.25
2022-12-15T16:02:14.976Z,15.60
2022-12-15T16:04:43.162Z,16.38
2022-12-15T16:07:22.509Z,13.55
2022-12-15T16:09:49.872Z,11.73
2022-12-15T16:12:29.660Z,11.25
2022-12-15T16:14:57.033Z,10.55
2022-12-15T16:17:24.057Z,9.30
2022-12-15T16:19:51.038Z,7.70
2022-12-15T16:22:21.374Z,8.43
2022-12-15T16:24:48.670Z,8.60
2022-12-15T16:27:16.384Z,7.80
2022-12-15T16:29:44.432Z,6.82
2022-12-15T16:32:14.379Z,5.88
2022-12-15T16:34:44.331Z,7.25
2022-12-15T16:37:26.163Z,6.40
2022-12-15T16:39:53.657Z,5.10
2022-12-15T16:42:20.721Z,5.50
2022-12-15T16:44:47.658Z,8.38
2022-12-15T16:47:15.616Z,9.48
2022-12-15T16:49:43.693Z,11.57
2022-12-15T16:52:20.538Z,9.88
2022-12-15T16:54:52.376Z,9.48
2022-12-15T16:57:22.898Z,8.52
2022-12-15T16:59:50.545Z,9.35
2022-12-15T17:02:28.734Z,9.50
2022-12-15T17:04:57.234Z,9.18
2022-12-15T17:07:33.749Z,8.75
2022-12-15T17:10:01.207Z,12.23
2022-12-15T17:12:28.214Z,13.82
2022-12-15T17:14:55.225Z,18.52
2022-12-15T17:17:22.176Z,25.42
2022-12-15T17:20:28.432Z,37.33
2022-12-15T17:22:37.838Z,40.55
2022-12-15T17:25:05.320Z,43.10
2022-12-15T17:27:32.820Z,49.13
2022-12-15T17:30:00.883Z,42.45
2022-12-15T17:32:27.809Z,43.75
2022-12-15T17:34:54.857Z,39.35
2022-12-15T17:37:21.962Z,34.72
2022-12-15T17:39:51.430Z,31.52
2022-12-15T17:42:20.252Z,32.28
2022-12-15T17:44:48.213Z,30.45
2022-12-15T17:47:16.591Z,33.20
2022-12-15T17:49:44.282Z,42.85
2022-12-15T17:52:26.176Z,37.55
2022-12-15T17:54:53.563Z,35.70
2022-12-15T17:57:20.759Z,37.15
2022-12-15T17:59:48.099Z,34.03
2022-12-15T18:02:15.530Z,33.63
2022-12-15T18:04:43.142Z,31.42
2022-12-15T18:07:22.616Z,35.80
2022-12-15T18:09:51.521Z,36.33
2022-12-15T18:12:24.533Z,37.20
2022-12-15T18:14:52.666Z,40.45
2022-12-15T18:17:20.035Z,44.00
2022-12-15T18:19:47.239Z,36.13
2022-12-15T18:22:21.991Z,35.20
2022-12-15T18:24:51.038Z,32.97
2022-12-15T18:27:21.976Z,32.42
2022-12-15T18:29:49.317Z,31.75
2022-12-15T18:32:17.542Z,31.20
2022-12-15T18:34:44.811Z,27.95
2022-12-15T18:37:19.654Z,28.30
2022-12-15T18:39:47.364Z,25.10
2022-12-15T18:42:20.764Z,22.95
2022-12-15T18:44:52.892Z,21.00
2022-12-15T18:47:22.645Z,18.10
2022-12-15T18:49:49.803Z,18.20
2022-12-15T18:52:17.838Z,22.25
2022-12-15T18:54:45.983Z,21.35
2022-12-15T18:57:34.913Z,19.55
2022-12-15T19:00:09.905Z,15.43
2022-12-15T19:02:36.979Z,14.55
2022-12-15T19:05:04.320Z,14.32
2022-12-15T19:07:31.303Z,13.05
2022-12-15T19:09:58.723Z,16.67
2022-12-15T19:12:25.658Z,13.73
2022-12-15T19:14:53.027Z,13.73
2022-12-15T19:17:42.733Z,10.38
2022-12-15T19:20:38.767Z,13.65
2022-12-15T19:23:06.713Z,11.52
2022-12-15T19:25:34.421Z,9.30
2022-12-15T19:28:03.879Z,14.55
2022-12-15T19:30:37.059Z,16.35
2022-12-15T19:33:07.790Z,23.00
2022-12-15T19:35:35.800Z,33.20
2022-12-15T19:38:04.276Z,26.75
2022-12-15T19:40:33.683Z,28.17
2022-12-15T19:43:02.315Z,28.13
2022-12-15T19:45:32.341Z,41.17
2022-12-15T19:47:59.975Z,58.13
2022-12-15T19:50:30.722Z,79.00
2022-12-15T19:53:00.574Z,66.00
2022-12-15T19:55:34.532Z,69.68
2022-12-15T19:58:26.754Z,63.10
2022-12-15T20:00:57.405Z,56.25
2022-12-15T20:03:25.080Z,42.65
2022-12-15T20:05:54.038Z,49.15
2022-12-15T20:08:25.217Z,42.25
2022-12-15T20:10:53.921Z,48.10
2022-12-15T20:13:22.212Z,24.90
2022-12-15T20:15:49.388Z,25.02
2022-12-15T20:18:16.321Z,21.42
2022-12-15T20:20:46.301Z,21.67
2022-12-15T20:23:20.023Z,20.73
2022-12-15T20:28:26.763Z,20.40
2022-12-15T20:30:54.409Z,19.00
2022-12-15T20:33:21.529Z,17.10
2022-12-15T20:35:49.903Z,17.27
2022-12-15T20:38:26.400Z,15.70
2022-12-15T20:40:54.678Z,14.65
2022-12-15T20:43:23.510Z,12.95
2022-12-15T20:46:05.082Z,16.40
2022-12-15T20:48:34.494Z,20.35
2022-12-15T20:51:05.833Z,26.48
2022-12-15T20:53:36.150Z,22.67
2022-12-15T20:56:03.420Z,18.83
2022-12-15T20:58:33.233Z,24.45
2022-12-15T21:01:00.857Z,36.63
2022-12-15T21:03:34.174Z,27.40
2022-12-15T21:06:01.500Z,25.92
2022-12-15T21:08:30.962Z,21.70
2022-12-15T21:11:02.552Z,24.08
2022-12-15T21:13:33.252Z,22.48
2022-12-15T21:16:00.612Z,23.88
2022-12-15T21:21:24.313Z,31.75
2022-12-15T21:23:51.361Z,41.35
2022-12-15T21:26:21.011Z,12.18
2022-12-15T21:28:49.760Z,15.15
2022-12-15T21:31:19.017Z,19.95
2022-12-15T21:33:46.670Z,17.30
2022-12-15T21:36:15.369Z,19.30
2022-12-15T21:38:44.228Z,15.02
2022-12-15T21:41:20.442Z,17.67
2022-12-15T21:43:47.867Z,14.02
2022-12-15T21:46:28.777Z,17.85
2022-12-15T21:49:15.318Z,17.48
2022-12-15T21:51:51.909Z,15.00
2022-12-15T21:54:30.460Z,13.52
2022-12-15T21:57:00.963Z,13.70
2022-12-15T21:59:30.552Z,13.43
2022-12-15T22:01:59.280Z,12.38
2022-12-15T22:04:33.635Z,10.60
2022-12-15T22:07:01.763Z,10.32
2022-12-15T22:09:29.176Z,8.75
2022-12-15T22:11:57.443Z,9.75
2022-12-15T22:14:33.966Z,10.95
2022-12-15T22:17:10.049Z,13.27
2022-12-15T22:19:37.034Z,10.65
2022-12-15T22:22:03.986Z,7.60
2022-12-15T22:24:31.039Z,6.95
2022-12-15T22:26:58.465Z,6.32
2022-12-15T22:29:25.955Z,6.85
2022-12-15T22:31:52.975Z,7.03
2022-12-15T22:34:24.086Z,6.03
2022-12-15T22:36:51.889Z,7.70
2022-12-15T22:39:19.823Z,6.15
2022-12-15T22:41:50.383Z,5.50
2022-12-15T22:44:19.446Z,6.00
2022-12-15T22:46:48.173Z,6.78
2022-12-15T22:49:18.591Z,7.30
2022-12-15T22:51:46.077Z,6.90
2022-12-15T22:54:20.873Z,7.00
2022-12-15T22:56:52.282Z,7.72
2022-12-15T22:59:35.272Z,7.38
2022-12-15T23:02:03.130Z,7.47
2022-12-15T23:04:31.685Z,8.30
2022-12-15T23:06:59.957Z,7.97
2022-12-15T23:09:26.922Z,7.60
2022-12-15T23:11:54.046Z,7.50
2022-12-15T23:14:41.078Z,7.80
2022-12-15T23:17:08.614Z,7.28
2022-12-15T23:19:35.741Z,7.75
2022-12-15T23:22:02.661Z,8.18
2022-12-15T23:24:31.216Z,10.77
2022-12-15T23:26:58.299Z,8.52
2022-12-15T23:29:25.266Z,7.05
2022-12-15T23:31:52.151Z,8.68
2022-12-15T23:34:19.106Z,10.00
2022-12-15T23:36:46.258Z,12.05
2022-12-15T23:39:13.332Z,12.57
2022-12-15T23:41:40.630Z,13.45
2022-12-15T23:44:08.317Z,12.85
2022-12-15T23:46:35.579Z,11.82
2022-12-15T23:49:02.658Z,12.68
2022-12-15T23:51:29.661Z,12.18
2022-12-15T23:53:56.598Z,11.40
2022-12-15T23:56:24.470Z,11.30
2022-12-15T23:58:57.016Z,11.07
